CST,Max TemperatureF,Mean TemperatureF,Min TemperatureF,Max Dew PointF,MeanDew PointF,Min DewpointF,Max Humidity, Mean Humidity, Min Humidity, Max Sea Level PressureIn, Mean Sea Level PressureIn, Min Sea Level PressureIn, Max VisibilityMiles, Mean VisibilityMiles, Min VisibilityMiles, Max Wind SpeedMPH, Mean Wind SpeedMPH, Max Gust SpeedMPH,PrecipitationIn, CloudCover, Events, WindDirDegrees
2012-12-1,88,76,63,70,66,63,100,73,46,30.12,30.07,30.01,10,9,5,22,11,31,0.01,1,,143
2012-12-2,88,75,61,67,63,59,100,72,43,30.12,30.07,30.02,10,10,2,21,9,25,0.00,1,,139
2012-12-3,87,74,60,67,62,59,100,70,40,30.05,30.00,29.94,10,10,8,25,12,31,0.01,0,,150
2012-12-4,88,74,60,70,65,59,100,70,40,30.10,30.05,29.99,10,6,0,18,8,23,0.00,1,Fog,147
2012-12-5,78,68,57,70,62,53,93,68,42,30.20,30.11,30.04,10,9,1,21,8,26,0.39,4,Rain-Thunderstorm,351
2012-12-6,82,66,50,64,56,50,100,73,45,30.02,29.94,29.83,10,4,0,13,5,16,0.02,1,Fog,146
2012-12-7,86,73,60,69,63,59,100,74,48,29.87,29.81,29.75,10,6,0,22,10,28,0.01,1,Fog,137
2012-12-8,86,76,65,71,67,64,100,76,51,29.88,29.83,29.78,10,8,4,23,11,26,0.00,3,,146
2012-12-9,85,77,69,72,69,66,100,78,55,29.89,29.82,29.76,10,7,2,22,12,26,0.00,3,,159
2012-12-10,75,62,48,72,51,26,93,62,30,30.09,29.95,29.77,10,8,2,37,13,47,0.07,6,Rain,350
2012-12-11,57,52,47,39,35,30,71,56,41,30.21,30.12,30.04,10,10,10,15,9,18,0.00,7,,355
2012-12-12,69,55,41,47,38,28,86,61,35,30.30,30.23,30.21,10,10,10,17,8,21,0.00,1,,358
2012-12-13,73,62,50,60,54,47,89,71,53,30.22,30.17,30.12,10,10,10,22,10,28,0.00,7,,96
2012-12-14,79,74,68,69,65,60,81,72,62,30.10,30.00,29.89,10,10,10,25,14,30,T,7,Rain,147
2012-12-15,86,79,72,72,69,67,87,71,55,29.91,29.86,29.80,10,9,7,17,16,21,0.00,4,,169
2012-12-16,86,78,70,71,69,66,93,74,55,29.85,29.80,29.70,10,7,4,22,10,28,0.00,4,,197
2012-12-17,82,67,52,65,51,34,84,51,17,30.01,29.93,29.83,10,10,10,15,8,18,T,0,,341
2012-12-18,86,68,49,70,61,47,93,69,45,29.97,29.88,29.80,10,10,9,25,14,30,0.00,2,,168
2012-12-19,85,79,73,70,69,66,87,71,55,29.82,29.76,29.68,10,8,7,35,22,41,0.00,5,,167
2012-12-20,75,59,42,70,31,7,93,52,11,30.48,30.18,29.79,10,7,3,37,18,45,T,2,Rain,328
2012-12-21,67,52,37,43,29,11,74,45,15,30.53,30.43,30.32,10,10,10,14,7,17,0.00,0,,10
2012-12-22,75,62,48,60,53,42,90,68,46,30.32,30.21,30.10,10,10,10,25,11,31,0.00,3,,133
2012-12-23,83,70,56,63,59,55,93,68,43,30.07,29.99,29.90,10,10,9,29,14,36,0.00,0,,174
2012-12-24,80,70,59,66,63,57,97,76,54,29.94,29.84,29.70,10,10,6,22,11,26,0.00,0,,174
2012-12-25,87,70,52,67,47,22,90,52,13,30.10,29.76,29.62,10,10,10,26,17,31,0.00,0,,277
2012-12-26,56,48,39,37,26,21,79,53,26,30.29,30.18,30.10,10,10,10,22,10,30,0.00,0,,359
2012-12-27,70,58,45,57,47,38,78,65,52,30.07,29.90,29.78,10,10,10,12,4,13,0.00,6,,20
2012-12-28,74,63,52,61,51,33,90,58,25,30.13,29.85,29.74,10,10,10,22,9,28,0.00,4,,334
2012-12-29,58,50,41,43,31,24,66,49,32,30.44,30.36,30.15,10,10,10,21,13,30,0.00,1,,356
2012-12-30,73,56,38,57,41,24,68,55,41,30.40,30.27,30.12,10,10,10,21,9,25,0.00,5,,74
2012-12-31,80,72,64,65,62,59,87,71,54,30.12,29.99,29.88,10,10,10,31,15,38,T,5,,169